createdAt,value
2019-04-14T00:01:06.871Z,25.97
2019-04-14T00:03:56.440Z,24.37
2019-04-14T00:06:27.066Z,25.30
2019-04-14T00:08:58.621Z,24.83
2019-04-14T00:11:30.141Z,24.93
2019-04-14T00:14:00.951Z,25.10
2019-04-14T00:16:33.470Z,25.73
2019-04-14T00:19:04.433Z,24.73
2019-04-14T00:21:35.013Z,25.20
2019-04-14T00:24:07.286Z,25.40
2019-04-14T00:26:38.012Z,25.50
2019-04-14T00:29:08.958Z,24.67
2019-04-14T00:31:39.881Z,23.73
2019-04-14T00:34:26.886Z,25.40
2019-04-14T00:37:16.335Z,24.47
2019-04-14T00:39:48.975Z,22.53
2019-04-14T00:42:30.203Z,23.33
2019-04-14T00:45:02.843Z,24.30
2019-04-14T00:47:50.856Z,24.13
2019-04-14T00:50:10.156Z,22.53
2019-04-14T00:52:41.530Z,23.60
2019-04-14T00:55:12.174Z,23.13
2019-04-14T00:57:42.646Z,24.27
2019-04-14T01:00:16.958Z,23.97
2019-04-14T01:02:45.539Z,23.67
2019-04-14T01:05:17.422Z,22.77
2019-04-14T01:07:48.074Z,23.73
2019-04-14T01:10:19.224Z,25.20
2019-04-14T01:12:49.741Z,24.70
2019-04-14T01:15:20.191Z,24.87
2019-04-14T01:17:52.784Z,22.67
2019-04-14T01:20:23.557Z,23.73
2019-04-14T01:22:55.215Z,24.83
2019-04-14T01:25:26.084Z,25.27
2019-04-14T01:27:58.128Z,24.87
2019-04-14T01:30:28.660Z,23.47
2019-04-14T01:32:59.117Z,23.90
2019-04-14T01:35:29.563Z,23.97
2019-04-14T01:38:00.076Z,24.20
2019-04-14T01:40:31.461Z,23.60
2019-04-14T01:43:01.987Z,23.60
2019-04-14T01:45:32.416Z,23.87
2019-04-14T01:48:03.871Z,22.13
2019-04-14T01:50:36.574Z,23.13
2019-04-14T01:53:11.935Z,22.87
2019-04-14T01:56:03.515Z,24.17
2019-04-14T01:58:36.097Z,22.97
2019-04-14T02:01:24.173Z,20.80
2019-04-14T02:03:54.651Z,19.93
2019-04-14T02:06:25.062Z,19.70
2019-04-14T02:08:56.751Z,19.73
2019-04-14T02:11:27.458Z,21.27
2019-04-14T02:13:59.117Z,20.40
2019-04-14T02:16:37.883Z,20.27
2019-04-14T02:19:04.303Z,21.07
2019-04-14T02:21:34.955Z,20.63
2019-04-14T02:24:05.546Z,21.47
2019-04-14T02:26:37.228Z,22.10
2019-04-14T02:29:08.016Z,23.70
2019-04-14T02:32:07.302Z,23.10
2019-04-14T02:34:44.870Z,24.50
2019-04-14T02:37:15.539Z,24.70
2019-04-14T02:39:46.580Z,26.67
2019-04-14T02:42:32.590Z,25.00
2019-04-14T02:44:45.756Z,27.23
2019-04-14T02:47:39.373Z,25.50
2019-04-14T02:52:20.487Z,28.57
2019-04-14T02:54:59.998Z,26.63
2019-04-14T03:00:18.856Z,27.23
2019-04-14T03:02:44.361Z,26.20
2019-04-14T03:05:16.333Z,26.07
2019-04-14T03:07:58.163Z,26.10
2019-04-14T03:10:24.607Z,28.07
2019-04-14T03:12:57.930Z,27.40
2019-04-14T03:15:37.922Z,25.20
2019-04-14T03:18:24.498Z,25.27
2019-04-14T03:20:40.174Z,24.83
2019-04-14T03:23:19.244Z,24.00
2019-04-14T03:25:43.675Z,23.90
2019-04-14T03:31:47.164Z,25.23
2019-04-14T03:34:17.735Z,27.87
2019-04-14T03:37:39.589Z,24.60
2019-04-14T03:43:48.369Z,24.83
2019-04-14T03:49:10.014Z,26.70
2019-04-14T03:54:01.715Z,27.13
2019-04-14T03:56:14.943Z,26.90
2019-04-14T03:58:45.138Z,28.37
2019-04-14T04:01:15.638Z,26.67
2019-04-14T04:03:46.067Z,26.70
2019-04-14T04:06:16.564Z,25.93
2019-04-14T04:08:47.019Z,26.80
2019-04-14T04:11:17.503Z,27.50
2019-04-14T04:13:47.858Z,25.50
2019-04-14T04:16:20.196Z,25.90
2019-04-14T04:18:58.809Z,28.80
2019-04-14T04:21:34.179Z,27.67
2019-04-14T04:24:12.875Z,26.67
2019-04-14T04:26:45.116Z,24.77
2019-04-14T04:29:20.203Z,29.33
2019-04-14T04:31:58.949Z,29.43
2019-04-14T04:34:31.629Z,27.83
2019-04-14T04:37:03.984Z,26.87
2019-04-14T04:39:43.197Z,27.90
2019-04-14T04:42:13.865Z,27.60
2019-04-14T04:44:44.259Z,28.80
2019-04-14T04:47:14.758Z,28.33
2019-04-14T04:49:45.284Z,28.93
2019-04-14T04:52:16.931Z,29.17
2019-04-14T04:54:47.633Z,29.70
2019-04-14T04:57:18.132Z,27.63
2019-04-14T04:59:49.645Z,27.37
2019-04-14T05:02:20.434Z,27.03
2019-04-14T05:04:51.066Z,29.63
2019-04-14T05:07:21.498Z,30.07
2019-04-14T05:09:56.240Z,29.47
2019-04-14T05:12:31.097Z,29.43
2019-04-14T05:15:03.581Z,26.47
2019-04-14T05:17:36.677Z,26.73
2019-04-14T05:20:07.433Z,27.70
2019-04-14T05:22:39.811Z,26.47
2019-04-14T05:25:10.370Z,24.33
2019-04-14T05:27:40.950Z,25.47
2019-04-14T05:30:11.459Z,27.93
2019-04-14T05:32:41.965Z,26.33
2019-04-14T05:35:12.425Z,26.73
2019-04-14T05:37:42.891Z,27.10
2019-04-14T05:40:14.543Z,27.53
2019-04-14T05:42:45.163Z,27.20
2019-04-14T05:45:15.629Z,26.93
2019-04-14T05:47:46.091Z,28.47
2019-04-14T05:50:16.719Z,27.40
2019-04-14T05:52:47.226Z,26.97
2019-04-14T05:55:17.803Z,26.20
2019-04-14T05:57:48.283Z,25.77
2019-04-14T06:00:19.173Z,27.97
2019-04-14T06:02:50.678Z,26.70
2019-04-14T06:05:21.260Z,26.73
2019-04-14T06:07:51.744Z,25.53
2019-04-14T06:10:22.179Z,26.10
2019-04-14T06:12:52.670Z,27.27
2019-04-14T06:15:23.092Z,26.07
2019-04-14T06:17:53.577Z,25.77
2019-04-14T06:20:24.034Z,25.77
2019-04-14T06:22:55.471Z,25.77
2019-04-14T06:25:25.916Z,24.93
2019-04-14T06:27:56.382Z,25.27
2019-04-14T06:30:37.539Z,27.93
2019-04-14T06:33:09.598Z,27.10
2019-04-14T06:35:58.140Z,27.47
2019-04-14T06:38:32.908Z,26.73
2019-04-14T06:41:07.635Z,28.47
2019-04-14T06:43:48.388Z,26.57
2019-04-14T06:46:10.307Z,26.90
2019-04-14T06:48:40.771Z,27.17
2019-04-14T06:51:11.197Z,28.73
2019-04-14T06:53:41.659Z,28.20
2019-04-14T06:56:12.479Z,26.27
2019-04-14T06:58:42.954Z,28.57
2019-04-14T07:01:13.387Z,27.50
2019-04-14T07:03:43.865Z,27.20
2019-04-14T07:06:14.304Z,29.73
2019-04-14T07:08:44.758Z,27.10
2019-04-14T07:11:15.210Z,26.27
2019-04-14T07:13:48.219Z,25.77
2019-04-14T07:16:17.937Z,24.73
2019-04-14T07:18:48.377Z,26.63
2019-04-14T07:21:18.793Z,25.70
2019-04-14T07:23:50.259Z,25.50
2019-04-14T07:26:20.676Z,26.67
2019-04-14T07:28:56.899Z,26.13
2019-04-14T07:31:41.159Z,25.77
2019-04-14T07:34:22.212Z,27.07
2019-04-14T07:37:10.887Z,27.83
2019-04-14T07:39:49.064Z,27.60
2019-04-14T07:42:30.125Z,26.17
2019-04-14T07:45:17.284Z,26.73
2019-04-14T07:48:01.588Z,27.30
2019-04-14T07:50:48.863Z,28.10
2019-04-14T07:53:29.641Z,28.10
2019-04-14T07:56:01.678Z,26.93
2019-04-14T07:58:36.405Z,25.47
2019-04-14T08:01:11.345Z,25.80
2019-04-14T08:03:43.356Z,26.33
2019-04-14T08:06:13.816Z,26.07
2019-04-14T08:08:44.230Z,25.83
2019-04-14T08:11:14.687Z,25.97
2019-04-14T08:13:45.112Z,26.67
2019-04-14T08:16:15.627Z,23.73
2019-04-14T08:18:46.074Z,22.87
2019-04-14T08:21:16.576Z,25.33
2019-04-14T08:23:47.020Z,26.67
2019-04-14T08:26:18.714Z,24.87
2019-04-14T08:28:49.144Z,27.33
2019-04-14T08:31:19.623Z,25.33
2019-04-14T08:33:49.976Z,24.67
2019-04-14T08:36:20.449Z,27.07
2019-04-14T08:38:50.891Z,27.47
2019-04-14T08:41:21.381Z,26.33
2019-04-14T08:43:59.099Z,27.83
2019-04-14T08:46:34.245Z,25.43
2019-04-14T08:49:08.976Z,26.37
2019-04-14T08:51:56.151Z,24.77
2019-04-14T08:54:30.791Z,26.10
2019-04-14T08:57:02.832Z,25.33
2019-04-14T08:59:40.571Z,25.30
2019-04-14T09:02:18.640Z,25.67
2019-04-14T09:04:53.366Z,27.30
2019-04-14T09:07:31.458Z,23.03
2019-04-14T09:10:06.441Z,24.40
2019-04-14T09:12:38.496Z,24.30
2019-04-14T09:15:09.931Z,24.13
2019-04-14T09:17:40.422Z,24.33
2019-04-14T09:20:10.939Z,23.87
2019-04-14T09:22:41.423Z,23.57
2019-04-14T09:25:11.877Z,24.23
2019-04-14T09:27:43.314Z,25.63
2019-04-14T09:30:14.733Z,24.40
2019-04-14T09:32:45.419Z,25.67
2019-04-14T09:35:15.882Z,25.97
2019-04-14T09:37:46.364Z,27.10
2019-04-14T09:40:16.807Z,26.13
2019-04-14T09:42:47.404Z,26.20
2019-04-14T09:45:17.990Z,26.03
2019-04-14T09:47:48.573Z,27.37
2019-04-14T09:50:19.038Z,24.90
2019-04-14T09:52:49.555Z,25.50
2019-04-14T09:55:19.998Z,26.83
2019-04-14T09:57:50.479Z,23.60
2019-04-14T10:00:21.220Z,26.53
2019-04-14T10:02:51.816Z,26.50
2019-04-14T10:05:22.273Z,25.23
2019-04-14T10:07:52.752Z,26.37
2019-04-14T10:10:23.277Z,24.63
2019-04-14T10:12:53.865Z,26.20
2019-04-14T10:15:24.280Z,26.67
2019-04-14T10:17:54.762Z,26.00
2019-04-14T10:20:25.226Z,25.23
2019-04-14T10:22:55.823Z,26.87
2019-04-14T10:25:26.294Z,26.83
2019-04-14T10:27:57.716Z,29.07
2019-04-14T10:30:28.139Z,26.73
2019-04-14T10:32:58.665Z,27.47
2019-04-14T10:35:29.114Z,29.07
2019-04-14T10:37:59.634Z,29.10
2019-04-14T10:40:30.105Z,30.23
2019-04-14T10:43:00.592Z,28.53
2019-04-14T10:45:31.116Z,28.80
2019-04-14T10:48:01.614Z,28.10
2019-04-14T10:50:32.066Z,26.47
2019-04-14T10:53:02.554Z,28.63
2019-04-14T10:55:32.992Z,28.03
2019-04-14T10:58:03.503Z,28.03
2019-04-14T11:00:33.934Z,27.40
2019-04-14T11:03:04.641Z,28.70
2019-04-14T11:05:36.665Z,26.83
2019-04-14T11:08:07.201Z,27.07
2019-04-14T11:10:37.616Z,27.40
2019-04-14T11:13:08.095Z,27.40
2019-04-14T11:15:38.511Z,38.40
2019-04-14T11:18:09.006Z,25.77
2019-04-14T11:20:39.450Z,26.57
2019-04-14T11:23:09.943Z,26.53
2019-04-14T11:25:40.544Z,25.60
2019-04-14T11:28:12.118Z,25.53
2019-04-14T11:30:42.830Z,25.50
2019-04-14T11:33:17.623Z,25.77
2019-04-14T11:35:49.659Z,26.47
2019-04-14T11:38:21.675Z,24.47
2019-04-14T11:40:59.671Z,24.10
2019-04-14T11:43:30.164Z,22.73
2019-04-14T11:46:03.604Z,24.07
2019-04-14T11:48:33.374Z,23.43
2019-04-14T11:51:03.845Z,23.93
2019-04-14T11:53:34.536Z,23.43
2019-04-14T11:56:05.092Z,21.80
2019-04-14T11:58:35.546Z,23.13
2019-04-14T12:01:10.378Z,25.17
2019-04-14T12:03:57.740Z,22.03
2019-04-14T12:06:35.760Z,22.60
2019-04-14T12:09:11.463Z,23.43
2019-04-14T12:11:41.920Z,21.80
2019-04-14T12:14:12.395Z,22.17
2019-04-14T12:16:42.885Z,21.50
2019-04-14T12:19:13.361Z,21.67
2019-04-14T12:21:46.682Z,21.77
2019-04-14T12:24:18.607Z,21.43
2019-04-14T12:26:49.061Z,21.87
2019-04-14T12:29:19.757Z,21.53
2019-04-14T12:31:50.983Z,20.87
2019-04-14T12:34:21.558Z,19.47
2019-04-14T12:36:52.001Z,19.40
2019-04-14T12:39:25.622Z,23.33
2019-04-14T12:41:58.687Z,20.43
2019-04-14T12:44:30.731Z,20.97
2019-04-14T12:47:05.956Z,21.10
2019-04-14T12:49:38.028Z,20.63
2019-04-14T12:52:21.853Z,22.37
2019-04-14T12:54:53.215Z,21.20
2019-04-14T12:57:25.240Z,21.70
2019-04-14T12:59:55.721Z,21.80
2019-04-14T13:02:30.740Z,21.53
2019-04-14T13:05:01.216Z,21.47
2019-04-14T13:07:31.654Z,22.13
2019-04-14T13:10:02.178Z,21.80
2019-04-14T13:12:32.606Z,22.40
2019-04-14T13:15:08.249Z,21.50
2019-04-14T13:17:38.781Z,19.83
2019-04-14T13:20:10.259Z,21.23
2019-04-14T13:22:40.691Z,22.50
2019-04-14T13:25:11.283Z,23.57
2019-04-14T13:27:41.811Z,21.53
2019-04-14T13:30:15.118Z,20.23
2019-04-14T13:32:45.636Z,21.07
2019-04-14T13:35:16.109Z,19.57
2019-04-14T13:37:46.523Z,22.00
2019-04-14T13:40:17.278Z,22.67
2019-04-14T13:42:48.831Z,21.63
2019-04-14T13:45:19.299Z,21.50
2019-04-14T13:47:49.733Z,21.50
2019-04-14T13:50:20.227Z,22.77
2019-04-14T13:52:50.669Z,20.77
2019-04-14T13:55:21.243Z,21.03
2019-04-14T13:57:51.710Z,20.53
2019-04-14T14:00:25.560Z,22.33
2019-04-14T14:02:55.998Z,22.73
2019-04-14T14:05:26.508Z,21.33
2019-04-14T14:07:56.939Z,21.73
2019-04-14T14:10:27.777Z,22.90
2019-04-14T14:13:15.996Z,23.23
2019-04-14T14:15:50.777Z,24.00
2019-04-14T14:18:38.984Z,22.73
2019-04-14T14:21:23.400Z,22.80
2019-04-14T14:23:55.443Z,22.53
2019-04-14T14:26:27.520Z,21.10
2019-04-14T14:28:57.973Z,22.07
2019-04-14T14:31:28.696Z,23.17
2019-04-14T14:33:59.107Z,22.87
2019-04-14T14:36:29.693Z,24.47
2019-04-14T14:39:00.123Z,22.60
2019-04-14T14:41:30.610Z,24.40
2019-04-14T14:44:01.088Z,23.50
2019-04-14T14:46:37.061Z,22.87
2019-04-14T14:49:09.135Z,24.77
2019-04-14T14:51:41.270Z,22.23
2019-04-14T14:54:11.738Z,22.90
2019-04-14T14:56:42.406Z,23.77
2019-04-14T14:59:12.846Z,22.50
2019-04-14T15:01:43.401Z,22.90
2019-04-14T15:04:13.957Z,23.93
2019-04-14T15:06:44.519Z,23.70
2019-04-14T15:09:14.956Z,23.60
2019-04-14T15:11:45.458Z,24.93
2019-04-14T15:14:16.216Z,24.03
2019-04-14T15:16:46.730Z,25.93
2019-04-14T15:19:17.168Z,27.00
2019-04-14T15:21:47.640Z,26.97
2019-04-14T15:24:18.106Z,73.57
2019-04-14T15:26:48.618Z,33.97
2019-04-14T15:29:19.058Z,45.43
2019-04-14T15:31:50.561Z,29.00
2019-04-14T15:34:20.998Z,24.47
2019-04-14T15:36:51.480Z,23.43
2019-04-14T15:39:21.902Z,25.47
2019-04-14T15:41:52.376Z,24.57
2019-04-14T15:44:22.802Z,36.10
2019-04-14T15:46:53.530Z,58.20
2019-04-14T15:49:24.474Z,59.93
2019-04-14T15:51:54.968Z,62.60
2019-04-14T15:54:25.677Z,24.80
2019-04-14T15:57:09.746Z,27.10
2019-04-14T15:59:41.739Z,23.83
2019-04-14T16:02:22.682Z,23.63
2019-04-14T16:05:00.836Z,24.20
2019-04-14T16:07:49.569Z,25.03
2019-04-14T16:10:24.570Z,23.80
2019-04-14T16:13:02.484Z,24.53
2019-04-14T16:15:34.514Z,23.57
2019-04-14T16:18:06.572Z,23.33
2019-04-14T16:20:38.603Z,26.23
2019-04-14T16:23:09.143Z,25.37
2019-04-14T16:25:43.881Z,24.17
2019-04-14T16:28:21.697Z,22.70
2019-04-14T16:31:06.039Z,22.83
2019-04-14T16:33:56.399Z,22.70
2019-04-14T16:36:26.943Z,22.93
2019-04-14T16:38:57.444Z,22.50
2019-04-14T16:41:27.880Z,22.80
2019-04-14T16:43:58.846Z,22.00
2019-04-14T16:46:29.281Z,22.67
2019-04-14T16:48:59.807Z,23.87
2019-04-14T16:51:31.833Z,22.70
2019-04-14T16:54:04.153Z,20.73
2019-04-14T16:56:52.548Z,22.07
2019-04-14T16:59:23.077Z,20.27
2019-04-14T17:01:53.647Z,19.60
2019-04-14T17:04:24.139Z,20.03
2019-04-14T17:06:54.615Z,19.70
2019-04-14T17:09:25.342Z,20.27
2019-04-14T17:11:55.787Z,20.60
2019-04-14T17:14:30.936Z,20.43
2019-04-14T17:17:03.016Z,21.03
2019-04-14T17:19:35.085Z,20.43
2019-04-14T17:22:09.815Z,19.93
2019-04-14T17:24:58.071Z,19.07
2019-04-14T17:27:33.240Z,19.40
2019-04-14T17:30:15.641Z,18.50
2019-04-14T17:32:47.678Z,19.93
2019-04-14T17:35:21.697Z,20.97
2019-04-14T17:37:53.697Z,19.17
2019-04-14T17:40:41.818Z,19.20
2019-04-14T17:43:22.947Z,19.27
2019-04-14T17:46:07.071Z,20.40
2019-04-14T17:48:39.083Z,19.63
2019-04-14T17:51:11.107Z,20.33
2019-04-14T17:53:55.188Z,19.93
2019-04-14T17:56:30.508Z,20.13
2019-04-14T17:59:14.396Z,19.87
2019-04-14T18:01:52.165Z,21.63
2019-04-14T18:04:40.516Z,20.20
2019-04-14T18:07:24.677Z,19.63
2019-04-14T18:10:02.897Z,20.00
2019-04-14T18:12:37.722Z,17.97
2019-04-14T18:15:11.732Z,19.23
2019-04-14T18:17:58.776Z,19.23
2019-04-14T18:20:30.839Z,19.77
2019-04-14T18:23:01.568Z,19.63
2019-04-14T18:25:32.019Z,19.43
2019-04-14T18:28:22.174Z,20.17
2019-04-14T18:30:54.196Z,19.40
2019-04-14T18:33:32.379Z,20.27
2019-04-14T18:36:14.340Z,18.73
2019-04-14T18:38:49.372Z,18.93
2019-04-14T18:41:21.401Z,18.60
2019-04-14T18:44:05.356Z,18.93
2019-04-14T18:46:40.668Z,17.17
2019-04-14T18:49:12.732Z,18.27
2019-04-14T18:51:59.885Z,19.43
2019-04-14T18:54:34.737Z,19.30
2019-04-14T18:57:06.773Z,17.70
2019-04-14T18:59:38.815Z,17.80
2019-04-14T19:02:10.468Z,16.93
2019-04-14T19:04:41.023Z,18.90
2019-04-14T19:07:11.501Z,18.10
2019-04-14T19:09:42.026Z,19.17
2019-04-14T19:12:20.188Z,18.80
2019-04-14T19:14:52.288Z,20.20
2019-04-14T19:17:24.312Z,19.77
2019-04-14T19:20:02.108Z,18.70
2019-04-14T19:22:28.548Z,18.50
2019-04-14T19:25:07.942Z,18.23
2019-04-14T19:27:31.245Z,18.90
2019-04-14T19:30:01.697Z,18.23
2019-04-14T19:32:32.105Z,18.43
2019-04-14T19:35:02.543Z,17.67
2019-04-14T19:37:33.990Z,17.83
2019-04-14T19:40:06.540Z,17.23
2019-04-14T19:42:37.022Z,18.83
2019-04-14T19:45:08.062Z,18.83
2019-04-14T19:47:38.550Z,20.13
2019-04-14T19:50:09.015Z,19.73
2019-04-14T19:52:39.475Z,18.67
2019-04-14T19:55:19.832Z,17.77
2019-04-14T19:57:42.171Z,19.53
2019-04-14T20:00:12.922Z,19.43
2019-04-14T20:02:43.391Z,19.03
2019-04-14T20:05:14.076Z,20.67
2019-04-14T20:07:44.641Z,20.73
2019-04-14T20:10:15.094Z,19.40
2019-04-14T20:12:45.718Z,22.10
2019-04-14T20:15:17.876Z,21.07
2019-04-14T20:17:52.963Z,21.50
2019-04-14T20:20:41.191Z,19.40
2019-04-14T20:23:13.373Z,20.00
2019-04-14T20:25:51.206Z,20.10
2019-04-14T20:28:23.261Z,17.37
2019-04-14T20:30:55.278Z,19.37
2019-04-14T20:33:25.773Z,19.53
2019-04-14T20:35:56.213Z,17.87
2019-04-14T20:38:27.711Z,18.43
2019-04-14T20:40:58.144Z,20.47
2019-04-14T20:43:28.634Z,19.07
2019-04-14T20:45:59.214Z,20.23
2019-04-14T20:48:29.723Z,18.07
2019-04-14T20:51:00.158Z,18.13
2019-04-14T20:53:30.649Z,18.80
2019-04-14T20:56:01.096Z,18.43
2019-04-14T20:58:31.595Z,18.50
2019-04-14T21:01:02.256Z,19.27
2019-04-14T21:03:46.382Z,18.83
2019-04-14T21:06:21.436Z,19.93
2019-04-14T21:09:10.112Z,20.60
2019-04-14T21:11:42.097Z,18.17
2019-04-14T21:14:23.644Z,17.77
2019-04-14T21:16:55.799Z,19.53
2019-04-14T21:19:34.232Z,18.53
2019-04-14T21:22:09.291Z,16.60
2019-04-14T21:24:41.376Z,16.60
2019-04-14T21:27:19.925Z,16.30
2019-04-14T21:29:55.038Z,16.73
2019-04-14T21:32:43.429Z,18.57
2019-04-14T21:35:14.818Z,19.00
2019-04-14T21:37:52.835Z,16.97
2019-04-14T21:40:35.068Z,18.17
2019-04-14T21:43:05.492Z,19.27
2019-04-14T21:45:35.982Z,17.97
2019-04-14T21:48:06.449Z,15.97
2019-04-14T21:50:37.432Z,16.27
2019-04-14T21:53:07.961Z,14.97
2019-04-14T21:55:38.428Z,14.87
2019-04-14T21:58:10.443Z,15.73
2019-04-14T22:01:05.929Z,16.43
2019-04-14T22:03:38.144Z,16.63
2019-04-14T22:06:16.185Z,15.40
2019-04-14T22:08:48.261Z,14.17
2019-04-14T22:11:23.185Z,13.90
2019-04-14T22:13:53.607Z,13.60
2019-04-14T22:16:24.090Z,14.40
2019-04-14T22:18:54.940Z,15.60
2019-04-14T22:21:25.445Z,15.20
2019-04-14T22:24:01.548Z,14.53
2019-04-14T22:26:28.078Z,14.67
2019-04-14T22:28:58.511Z,13.93
2019-04-14T22:31:28.973Z,14.00
2019-04-14T22:33:59.418Z,14.67
2019-04-14T22:36:29.804Z,14.90
2019-04-14T22:39:00.231Z,13.90
2019-04-14T22:41:31.733Z,13.13
2019-04-14T22:44:02.165Z,14.27
2019-04-14T22:46:32.636Z,11.90
2019-04-14T22:49:03.076Z,12.13
2019-04-14T22:51:33.537Z,12.47
2019-04-14T22:54:04.038Z,12.83
2019-04-14T22:56:39.455Z,12.23
2019-04-14T22:59:06.688Z,11.07
2019-04-14T23:01:38.743Z,10.33
2019-04-14T23:04:22.984Z,12.77
2019-04-14T23:07:03.798Z,11.03
2019-04-14T23:09:41.816Z,10.93
2019-04-14T23:12:29.961Z,11.77
2019-04-14T23:15:01.966Z,11.90
2019-04-14T23:17:34.027Z,12.23
2019-04-14T23:20:17.141Z,10.50
2019-04-14T23:22:49.198Z,11.73
2019-04-14T23:25:19.637Z,11.03
2019-04-14T23:27:50.127Z,11.50
2019-04-14T23:30:20.650Z,11.07
2019-04-14T23:32:51.345Z,10.73
2019-04-14T23:35:21.799Z,10.80
2019-04-14T23:37:52.300Z,11.53
2019-04-14T23:40:22.743Z,10.83
2019-04-14T23:42:54.237Z,9.33
2019-04-14T23:45:24.670Z,10.67
2019-04-14T23:47:55.119Z,10.50
2019-04-14T23:50:25.574Z,11.20
2019-04-14T23:52:56.025Z,11.77
2019-04-14T23:55:26.527Z,10.13
2019-04-14T23:57:57.052Z,10.03
